sensor_id;sensor_type;location;lat;lon;timestamp;temperature;humidity
32173;DHT22;18679;45.190;5.722;2023-07-20T00:02:27;29.00;33.60
32173;DHT22;18679;45.190;5.722;2023-07-20T00:05:28;29.00;33.60
32173;DHT22;18679;45.190;5.722;2023-07-20T00:08:29;29.00;33.60
32173;DHT22;18679;45.190;5.722;2023-07-20T00:11:30;28.70;33.50
32173;DHT22;18679;45.190;5.722;2023-07-20T00:14:31;29.00;33.60
32173;DHT22;18679;45.190;5.722;2023-07-20T00:17:32;29.00;33.70
32173;DHT22;18679;45.190;5.722;2023-07-20T00:20:33;28.90;33.70
32173;DHT22;18679;45.190;5.722;2023-07-20T00:23:34;28.90;33.80
32173;DHT22;18679;45.190;5.722;2023-07-20T00:26:35;28.90;33.90
32173;DHT22;18679;45.190;5.722;2023-07-20T00:29:36;28.80;34.00
32173;DHT22;18679;45.190;5.722;2023-07-20T00:32:37;28.80;34.00
32173;DHT22;18679;45.190;5.722;2023-07-20T00:35:41;28.80;34.00
32173;DHT22;18679;45.190;5.722;2023-07-20T00:38:42;28.80;34.10
32173;DHT22;18679;45.190;5.722;2023-07-20T00:41:43;28.80;33.80
32173;DHT22;18679;45.190;5.722;2023-07-20T00:44:44;28.80;34.30
32173;DHT22;18679;45.190;5.722;2023-07-20T00:47:46;28.70;34.40
32173;DHT22;18679;45.190;5.722;2023-07-20T00:50:48;28.60;34.50
32173;DHT22;18679;45.190;5.722;2023-07-20T00:53:49;28.60;34.50
32173;DHT22;18679;45.190;5.722;2023-07-20T00:56:50;28.60;34.60
32173;DHT22;18679;45.190;5.722;2023-07-20T00:59:52;28.60;34.80
32173;DHT22;18679;45.190;5.722;2023-07-20T01:02:53;28.50;34.60
32173;DHT22;18679;45.190;5.722;2023-07-20T01:06:18;28.50;34.60
32173;DHT22;18679;45.190;5.722;2023-07-20T01:13:27;28.40;34.80
32173;DHT22;18679;45.190;5.722;2023-07-20T01:16:28;28.40;34.90
32173;DHT22;18679;45.190;5.722;2023-07-20T01:19:29;28.40;35.00
32173;DHT22;18679;45.190;5.722;2023-07-20T01:26:38;28.30;35.10
32173;DHT22;18679;45.190;5.722;2023-07-20T01:33:15;28.20;35.40
32173;DHT22;18679;45.190;5.722;2023-07-20T01:36:18;28.20;35.40
32173;DHT22;18679;45.190;5.722;2023-07-20T01:39:20;28.20;35.60
32173;DHT22;18679;45.190;5.722;2023-07-20T01:42:24;28.20;35.70
32173;DHT22;18679;45.190;5.722;2023-07-20T01:45:25;28.10;35.80
32173;DHT22;18679;45.190;5.722;2023-07-20T01:48:27;28.10;35.90
32173;DHT22;18679;45.190;5.722;2023-07-20T01:51:28;28.10;36.00
32173;DHT22;18679;45.190;5.722;2023-07-20T01:54:30;28.00;36.00
32173;DHT22;18679;45.190;5.722;2023-07-20T01:57:31;28.00;36.00
32173;DHT22;18679;45.190;5.722;2023-07-20T02:00:32;28.00;36.10
32173;DHT22;18679;45.190;5.722;2023-07-20T02:03:33;27.90;36.20
32173;DHT22;18679;45.190;5.722;2023-07-20T02:06:37;27.80;36.20
32173;DHT22;18679;45.190;5.722;2023-07-20T02:09:38;27.80;36.20
32173;DHT22;18679;45.190;5.722;2023-07-20T02:12:42;27.80;36.30
32173;DHT22;18679;45.190;5.722;2023-07-20T02:15:42;27.80;36.40
32173;DHT22;18679;45.190;5.722;2023-07-20T02:18:43;27.80;36.40
32173;DHT22;18679;45.190;5.722;2023-07-20T02:21:46;27.70;36.40
32173;DHT22;18679;45.190;5.722;2023-07-20T02:24:47;27.70;36.50
32173;DHT22;18679;45.190;5.722;2023-07-20T02:27:47;27.70;36.70
32173;DHT22;18679;45.190;5.722;2023-07-20T02:30:48;27.60;36.70
32173;DHT22;18679;45.190;5.722;2023-07-20T02:33:49;27.60;36.90
32173;DHT22;18679;45.190;5.722;2023-07-20T02:36:50;27.60;36.90
32173;DHT22;18679;45.190;5.722;2023-07-20T02:39:51;27.50;36.90
32173;DHT22;18679;45.190;5.722;2023-07-20T02:42:52;27.50;37.00
32173;DHT22;18679;45.190;5.722;2023-07-20T02:45:53;27.40;37.10
32173;DHT22;18679;45.190;5.722;2023-07-20T02:48:54;27.40;37.20
32173;DHT22;18679;45.190;5.722;2023-07-20T02:51:54;27.30;37.90
32173;DHT22;18679;45.190;5.722;2023-07-20T02:54:55;27.30;37.50
32173;DHT22;18679;45.190;5.722;2023-07-20T02:57:56;27.20;37.50
32173;DHT22;18679;45.190;5.722;2023-07-20T03:00:59;27.20;37.60
32173;DHT22;18679;45.190;5.722;2023-07-20T03:03:59;27.10;37.80
32173;DHT22;18679;45.190;5.722;2023-07-20T03:07:00;27.10;37.90
32173;DHT22;18679;45.190;5.722;2023-07-20T03:10:02;27.00;37.90
32173;DHT22;18679;45.190;5.722;2023-07-20T03:13:04;26.90;38.00
32173;DHT22;18679;45.190;5.722;2023-07-20T03:16:05;26.80;38.10
32173;DHT22;18679;45.190;5.722;2023-07-20T03:19:12;26.80;38.20
32173;DHT22;18679;45.190;5.722;2023-07-20T03:22:13;26.80;38.30
32173;DHT22;18679;45.190;5.722;2023-07-20T03:25:13;26.70;38.50
32173;DHT22;18679;45.190;5.722;2023-07-20T03:28:14;26.70;38.80
32173;DHT22;18679;45.190;5.722;2023-07-20T03:31:16;26.60;39.10
32173;DHT22;18679;45.190;5.722;2023-07-20T03:34:17;26.60;39.40
32173;DHT22;18679;45.190;5.722;2023-07-20T03:37:18;26.50;39.60
32173;DHT22;18679;45.190;5.722;2023-07-20T03:40:18;26.40;39.60
32173;DHT22;18679;45.190;5.722;2023-07-20T03:43:20;26.40;40.00
32173;DHT22;18679;45.190;5.722;2023-07-20T03:46:21;26.30;40.30
32173;DHT22;18679;45.190;5.722;2023-07-20T03:49:22;26.30;40.50
32173;DHT22;18679;45.190;5.722;2023-07-20T03:52:23;26.30;40.60
32173;DHT22;18679;45.190;5.722;2023-07-20T03:55:24;26.30;40.60
32173;DHT22;18679;45.190;5.722;2023-07-20T03:58:25;26.30;40.50
32173;DHT22;18679;45.190;5.722;2023-07-20T04:01:25;26.30;40.70
32173;DHT22;18679;45.190;5.722;2023-07-20T04:04:26;26.30;40.70
32173;DHT22;18679;45.190;5.722;2023-07-20T04:07:28;26.30;40.90
32173;DHT22;18679;45.190;5.722;2023-07-20T04:10:29;26.30;40.90
32173;DHT22;18679;45.190;5.722;2023-07-20T04:13:30;26.30;40.90
32173;DHT22;18679;45.190;5.722;2023-07-20T04:16:37;26.30;40.90
32173;DHT22;18679;45.190;5.722;2023-07-20T04:19:38;26.30;40.90
32173;DHT22;18679;45.190;5.722;2023-07-20T04:22:39;26.20;40.80
32173;DHT22;18679;45.190;5.722;2023-07-20T04:25:43;26.10;41.00
32173;DHT22;18679;45.190;5.722;2023-07-20T04:28:46;26.00;41.20
32173;DHT22;18679;45.190;5.722;2023-07-20T04:31:56;25.90;41.40
32173;DHT22;18679;45.190;5.722;2023-07-20T04:34:57;25.80;41.60
32173;DHT22;18679;45.190;5.722;2023-07-20T04:37:58;25.70;41.80
32173;DHT22;18679;45.190;5.722;2023-07-20T04:40:59;25.70;42.10
32173;DHT22;18679;45.190;5.722;2023-07-20T04:44:01;25.60;42.30
32173;DHT22;18679;45.190;5.722;2023-07-20T04:47:04;25.60;42.50
32173;DHT22;18679;45.190;5.722;2023-07-20T04:50:09;25.50;42.50
32173;DHT22;18679;45.190;5.722;2023-07-20T04:53:14;25.60;42.70
32173;DHT22;18679;45.190;5.722;2023-07-20T04:56:17;25.60;42.80
32173;DHT22;18679;45.190;5.722;2023-07-20T04:59:22;25.70;42.80
32173;DHT22;18679;45.190;5.722;2023-07-20T05:02:23;25.70;42.70
32173;DHT22;18679;45.190;5.722;2023-07-20T05:05:29;25.70;42.70
32173;DHT22;18679;45.190;5.722;2023-07-20T05:08:33;25.70;42.70
32173;DHT22;18679;45.190;5.722;2023-07-20T05:11:34;25.70;42.70
32173;DHT22;18679;45.190;5.722;2023-07-20T05:14:35;25.80;42.70
32173;DHT22;18679;45.190;5.722;2023-07-20T05:17:36;25.80;42.70
32173;DHT22;18679;45.190;5.722;2023-07-20T05:20:43;25.80;42.60
32173;DHT22;18679;45.190;5.722;2023-07-20T05:23:46;25.80;42.60
32173;DHT22;18679;45.190;5.722;2023-07-20T05:26:51;25.80;42.60
32173;DHT22;18679;45.190;5.722;2023-07-20T05:29:52;25.80;42.60
32173;DHT22;18679;45.190;5.722;2023-07-20T05:32:58;25.90;42.60
32173;DHT22;18679;45.190;5.722;2023-07-20T05:36:01;25.80;42.50
32173;DHT22;18679;45.190;5.722;2023-07-20T05:39:02;25.90;42.40
32173;DHT22;18679;45.190;5.722;2023-07-20T05:42:10;25.90;42.40
32173;DHT22;18679;45.190;5.722;2023-07-20T05:45:12;25.90;42.40
32173;DHT22;18679;45.190;5.722;2023-07-20T05:48:13;26.00;42.40
32173;DHT22;18679;45.190;5.722;2023-07-20T05:51:14;26.00;42.30
32173;DHT22;18679;45.190;5.722;2023-07-20T05:54:14;26.00;42.20
32173;DHT22;18679;45.190;5.722;2023-07-20T05:57:15;26.10;42.40
32173;DHT22;18679;45.190;5.722;2023-07-20T06:00:17;26.10;42.30
32173;DHT22;18679;45.190;5.722;2023-07-20T06:03:19;26.10;42.30
32173;DHT22;18679;45.190;5.722;2023-07-20T06:06:22;26.10;42.30
32173;DHT22;18679;45.190;5.722;2023-07-20T06:09:23;26.10;42.30
32173;DHT22;18679;45.190;5.722;2023-07-20T06:12:24;26.10;42.40
32173;DHT22;18679;45.190;5.722;2023-07-20T06:15:31;26.10;42.40
32173;DHT22;18679;45.190;5.722;2023-07-20T06:18:31;26.00;42.40
32173;DHT22;18679;45.190;5.722;2023-07-20T06:21:32;26.00;42.50
32173;DHT22;18679;45.190;5.722;2023-07-20T06:24:33;25.70;42.60
32173;DHT22;18679;45.190;5.722;2023-07-20T06:27:34;25.80;42.90
32173;DHT22;18679;45.190;5.722;2023-07-20T06:30:35;25.80;43.00
32173;DHT22;18679;45.190;5.722;2023-07-20T06:33:36;25.80;42.90
32173;DHT22;18679;45.190;5.722;2023-07-20T06:36:37;25.70;43.00
32173;DHT22;18679;45.190;5.722;2023-07-20T06:39:38;25.70;43.00
32173;DHT22;18679;45.190;5.722;2023-07-20T06:42:39;25.80;43.00
32173;DHT22;18679;45.190;5.722;2023-07-20T06:45:40;25.80;42.90
32173;DHT22;18679;45.190;5.722;2023-07-20T06:48:41;25.90;42.80
32173;DHT22;18679;45.190;5.722;2023-07-20T06:51:42;25.90;42.60
32173;DHT22;18679;45.190;5.722;2023-07-20T06:54:44;26.10;42.50
32173;DHT22;18679;45.190;5.722;2023-07-20T06:57:45;26.10;42.30
32173;DHT22;18679;45.190;5.722;2023-07-20T07:00:49;26.10;42.30
32173;DHT22;18679;45.190;5.722;2023-07-20T07:03:50;26.20;42.20
32173;DHT22;18679;45.190;5.722;2023-07-20T07:06:54;26.30;42.00
32173;DHT22;18679;45.190;5.722;2023-07-20T07:09:54;26.50;41.80
32173;DHT22;18679;45.190;5.722;2023-07-20T07:12:55;26.50;41.60
32173;DHT22;18679;45.190;5.722;2023-07-20T07:15:56;26.50;41.50
32173;DHT22;18679;45.190;5.722;2023-07-20T07:18:59;26.60;41.40
32173;DHT22;18679;45.190;5.722;2023-07-20T07:22:00;26.70;41.40
32173;DHT22;18679;45.190;5.722;2023-07-20T07:25:01;26.70;41.30
32173;DHT22;18679;45.190;5.722;2023-07-20T07:28:03;26.70;41.30
32173;DHT22;18679;45.190;5.722;2023-07-20T07:31:05;26.80;41.10
32173;DHT22;18679;45.190;5.722;2023-07-20T07:34:07;26.90;41.00
32173;DHT22;18679;45.190;5.722;2023-07-20T07:37:08;27.10;40.90
32173;DHT22;18679;45.190;5.722;2023-07-20T07:40:24;27.20;40.70
32173;DHT22;18679;45.190;5.722;2023-07-20T07:48:20;27.50;40.30
32173;DHT22;18679;45.190;5.722;2023-07-20T08:01:17;27.80;39.60
32173;DHT22;18679;45.190;5.722;2023-07-20T08:05:42;28.00;39.10
32173;DHT22;18679;45.190;5.722;2023-07-20T08:13:33;28.40;38.70
32173;DHT22;18679;45.190;5.722;2023-07-20T08:22:12;28.80;38.30
32173;DHT22;18679;45.190;5.722;2023-07-20T08:25:28;29.00;37.90
32173;DHT22;18679;45.190;5.722;2023-07-20T08:29:44;29.10;37.50
32173;DHT22;18679;45.190;5.722;2023-07-20T08:32:55;29.20;37.40
32173;DHT22;18679;45.190;5.722;2023-07-20T08:48:19;29.60;36.60
32173;DHT22;18679;45.190;5.722;2023-07-20T09:00:56;30.20;35.90
32173;DHT22;18679;45.190;5.722;2023-07-20T09:08:14;30.20;35.50
32173;DHT22;18679;45.190;5.722;2023-07-20T09:15:19;30.40;35.20
32173;DHT22;18679;45.190;5.722;2023-07-20T09:18:34;30.50;35.00
32173;DHT22;18679;45.190;5.722;2023-07-20T09:22:02;30.50;35.10
32173;DHT22;18679;45.190;5.722;2023-07-20T09:25:39;30.50;35.10
32173;DHT22;18679;45.190;5.722;2023-07-20T09:29:12;30.50;35.00
32173;DHT22;18679;45.190;5.722;2023-07-20T09:32:35;30.50;35.00
32173;DHT22;18679;45.190;5.722;2023-07-20T09:36:12;30.50;34.90
32173;DHT22;18679;45.190;5.722;2023-07-20T09:39:22;30.60;34.80
32173;DHT22;18679;45.190;5.722;2023-07-20T09:46:48;30.70;34.80
32173;DHT22;18679;45.190;5.722;2023-07-20T09:55:21;30.80;34.30
32173;DHT22;18679;45.190;5.722;2023-07-20T09:58:54;30.90;34.40
32173;DHT22;18679;45.190;5.722;2023-07-20T10:02:13;31.00;34.40
32173;DHT22;18679;45.190;5.722;2023-07-20T10:06:00;31.20;34.40
32173;DHT22;18679;45.190;5.722;2023-07-20T10:09:07;31.20;34.20
32173;DHT22;18679;45.190;5.722;2023-07-20T10:12:14;31.20;34.10
32173;DHT22;18679;45.190;5.722;2023-07-20T10:15:36;31.30;34.10
32173;DHT22;18679;45.190;5.722;2023-07-20T10:19:11;31.30;34.00
32173;DHT22;18679;45.190;5.722;2023-07-20T10:22:27;31.30;33.90
32173;DHT22;18679;45.190;5.722;2023-07-20T10:25:31;30.90;33.60
32173;DHT22;18679;45.190;5.722;2023-07-20T10:28:36;31.40;33.70
32173;DHT22;18679;45.190;5.722;2023-07-20T10:31:42;31.40;33.80
32173;DHT22;18679;45.190;5.722;2023-07-20T10:34:51;31.50;33.70
32173;DHT22;18679;45.190;5.722;2023-07-20T10:37:54;31.60;33.50
32173;DHT22;18679;45.190;5.722;2023-07-20T10:40:56;31.60;33.20
32173;DHT22;18679;45.190;5.722;2023-07-20T10:44:32;31.60;33.30
32173;DHT22;18679;45.190;5.722;2023-07-20T10:47:58;31.60;33.60
32173;DHT22;18679;45.190;5.722;2023-07-20T10:51:21;31.40;33.30
32173;DHT22;18679;45.190;5.722;2023-07-20T10:54:47;31.70;33.30
32173;DHT22;18679;45.190;5.722;2023-07-20T10:58:11;31.80;33.20
32173;DHT22;18679;45.190;5.722;2023-07-20T11:01:19;31.90;33.10
32173;DHT22;18679;45.190;5.722;2023-07-20T11:04:38;32.00;33.00
32173;DHT22;18679;45.190;5.722;2023-07-20T11:07:39;32.10;33.00
32173;DHT22;18679;45.190;5.722;2023-07-20T11:10:40;32.50;32.40
32173;DHT22;18679;45.190;5.722;2023-07-20T11:13:54;33.10;31.60
32173;DHT22;18679;45.190;5.722;2023-07-20T11:16:56;33.90;30.70
32173;DHT22;18679;45.190;5.722;2023-07-20T11:20:12;34.60;29.90
32173;DHT22;18679;45.190;5.722;2023-07-20T11:23:13;35.30;29.20
32173;DHT22;18679;45.190;5.722;2023-07-20T11:26:14;35.80;28.70
32173;DHT22;18679;45.190;5.722;2023-07-20T11:29:17;36.30;28.20
32173;DHT22;18679;45.190;5.722;2023-07-20T11:32:24;36.60;27.90
32173;DHT22;18679;45.190;5.722;2023-07-20T11:35:25;36.90;27.60
32173;DHT22;18679;45.190;5.722;2023-07-20T11:38:28;37.10;27.30
32173;DHT22;18679;45.190;5.722;2023-07-20T11:41:29;37.20;27.00
32173;DHT22;18679;45.190;5.722;2023-07-20T11:44:30;37.30;27.10
32173;DHT22;18679;45.190;5.722;2023-07-20T11:47:31;37.60;26.90
32173;DHT22;18679;45.190;5.722;2023-07-20T11:50:38;37.90;26.60
32173;DHT22;18679;45.190;5.722;2023-07-20T11:53:39;38.00;26.20
32173;DHT22;18679;45.190;5.722;2023-07-20T11:56:41;38.10;26.20
32173;DHT22;18679;45.190;5.722;2023-07-20T11:59:56;38.30;26.00
32173;DHT22;18679;45.190;5.722;2023-07-20T12:02:57;38.60;25.80
32173;DHT22;18679;45.190;5.722;2023-07-20T12:06:07;38.90;25.50
32173;DHT22;18679;45.190;5.722;2023-07-20T12:09:14;39.00;25.30
32173;DHT22;18679;45.190;5.722;2023-07-20T12:12:19;39.10;25.00
32173;DHT22;18679;45.190;5.722;2023-07-20T12:18:23;39.20;24.80
32173;DHT22;18679;45.190;5.722;2023-07-20T12:21:24;39.20;24.80
32173;DHT22;18679;45.190;5.722;2023-07-20T12:24:25;39.60;24.70
32173;DHT22;18679;45.190;5.722;2023-07-20T12:27:28;39.70;24.30
32173;DHT22;18679;45.190;5.722;2023-07-20T12:30:29;39.80;24.20
32173;DHT22;18679;45.190;5.722;2023-07-20T12:33:29;40.00;24.00
32173;DHT22;18679;45.190;5.722;2023-07-20T12:36:30;40.20;23.80
32173;DHT22;18679;45.190;5.722;2023-07-20T12:39:32;40.20;23.50
32173;DHT22;18679;45.190;5.722;2023-07-20T12:42:33;40.30;23.60
32173;DHT22;18679;45.190;5.722;2023-07-20T12:45:34;40.30;23.50
32173;DHT22;18679;45.190;5.722;2023-07-20T12:48:36;40.40;23.30
32173;DHT22;18679;45.190;5.722;2023-07-20T12:51:41;40.40;23.10
32173;DHT22;18679;45.190;5.722;2023-07-20T12:54:42;40.50;23.00
32173;DHT22;18679;45.190;5.722;2023-07-20T12:57:45;40.70;23.00
32173;DHT22;18679;45.190;5.722;2023-07-20T13:00:46;41.00;22.70
32173;DHT22;18679;45.190;5.722;2023-07-20T13:03:47;41.20;22.50
32173;DHT22;18679;45.190;5.722;2023-07-20T13:06:49;41.40;22.30
32173;DHT22;18679;45.190;5.722;2023-07-20T13:09:50;41.60;21.90
32173;DHT22;18679;45.190;5.722;2023-07-20T13:12:51;41.80;21.60
32173;DHT22;18679;45.190;5.722;2023-07-20T13:15:58;41.90;21.40
32173;DHT22;18679;45.190;5.722;2023-07-20T13:19:03;42.20;21.40
32173;DHT22;18679;45.190;5.722;2023-07-20T13:22:26;42.50;21.00
32173;DHT22;18679;45.190;5.722;2023-07-20T13:25:55;42.60;20.60
32173;DHT22;18679;45.190;5.722;2023-07-20T13:29:14;43.10;20.50
32173;DHT22;18679;45.190;5.722;2023-07-20T13:32:39;43.30;20.20
32173;DHT22;18679;45.190;5.722;2023-07-20T13:35:55;43.60;20.10
32173;DHT22;18679;45.190;5.722;2023-07-20T13:39:11;44.10;19.70
32173;DHT22;18679;45.190;5.722;2023-07-20T13:42:44;44.80;19.40
32173;DHT22;18679;45.190;5.722;2023-07-20T13:45:48;45.30;18.80
32173;DHT22;18679;45.190;5.722;2023-07-20T13:49:33;45.40;18.70
32173;DHT22;18679;45.190;5.722;2023-07-20T13:52:38;45.90;18.50
32173;DHT22;18679;45.190;5.722;2023-07-20T14:00:12;46.40;18.00
32173;DHT22;18679;45.190;5.722;2023-07-20T14:03:47;46.70;17.70
32173;DHT22;18679;45.190;5.722;2023-07-20T14:06:55;46.80;17.50
32173;DHT22;18679;45.190;5.722;2023-07-20T14:09:57;47.00;17.40
32173;DHT22;18679;45.190;5.722;2023-07-20T14:13:23;46.60;17.30
32173;DHT22;18679;45.190;5.722;2023-07-20T14:21:05;46.50;17.60
32173;DHT22;18679;45.190;5.722;2023-07-20T14:24:27;46.90;17.20
32173;DHT22;18679;45.190;5.722;2023-07-20T14:27:54;46.90;17.20
32173;DHT22;18679;45.190;5.722;2023-07-20T14:34:59;47.40;16.80
32173;DHT22;18679;45.190;5.722;2023-07-20T14:38:36;47.40;16.60
32173;DHT22;18679;45.190;5.722;2023-07-20T14:46:05;46.80;16.90
32173;DHT22;18679;45.190;5.722;2023-07-20T14:53:14;46.40;17.10
32173;DHT22;18679;45.190;5.722;2023-07-20T15:00:17;46.20;17.10
32173;DHT22;18679;45.190;5.722;2023-07-20T15:03:30;46.20;17.00
32173;DHT22;18679;45.190;5.722;2023-07-20T15:06:53;46.20;17.00
32173;DHT22;18679;45.190;5.722;2023-07-20T15:10:00;45.80;17.10
32173;DHT22;18679;45.190;5.722;2023-07-20T15:13:22;44.70;17.90
32173;DHT22;18679;45.190;5.722;2023-07-20T15:17:08;43.30;19.00
32173;DHT22;18679;45.190;5.722;2023-07-20T15:21:11;41.50;20.00
32173;DHT22;18679;45.190;5.722;2023-07-20T15:24:26;39.80;21.10
32173;DHT22;18679;45.190;5.722;2023-07-20T15:27:33;39.30;21.70
32173;DHT22;18679;45.190;5.722;2023-07-20T15:31:13;39.90;21.50
32173;DHT22;18679;45.190;5.722;2023-07-20T15:34:15;40.80;20.80
32173;DHT22;18679;45.190;5.722;2023-07-20T15:37:25;41.60;20.10
32173;DHT22;18679;45.190;5.722;2023-07-20T15:45:36;42.30;19.20
32173;DHT22;18679;45.190;5.722;2023-07-20T15:52:33;43.10;18.80
32173;DHT22;18679;45.190;5.722;2023-07-20T16:18:34;44.10;17.90
32173;DHT22;18679;45.190;5.722;2023-07-20T16:22:16;44.00;18.10
32173;DHT22;18679;45.190;5.722;2023-07-20T16:25:37;44.10;18.00
32173;DHT22;18679;45.190;5.722;2023-07-20T16:54:12;41.50;19.30
32173;DHT22;18679;45.190;5.722;2023-07-20T17:02:52;40.20;20.10
32173;DHT22;18679;45.190;5.722;2023-07-20T17:16:51;36.20;23.30
32173;DHT22;18679;45.190;5.722;2023-07-20T17:20:13;35.50;24.00
32173;DHT22;18679;45.190;5.722;2023-07-20T17:23:27;35.00;24.40
32173;DHT22;18679;45.190;5.722;2023-07-20T17:26:41;34.60;24.60
32173;DHT22;18679;45.190;5.722;2023-07-20T19:07:36;31.60;28.60
32173;DHT22;18679;45.190;5.722;2023-07-20T19:52:29;30.60;31.00
32173;DHT22;18679;45.190;5.722;2023-07-20T19:56:02;30.60;31.40
32173;DHT22;18679;45.190;5.722;2023-07-20T19:59:18;30.50;31.30
32173;DHT22;18679;45.190;5.722;2023-07-20T20:02:42;30.60;32.00
32173;DHT22;18679;45.190;5.722;2023-07-20T20:05:59;30.50;32.00
32173;DHT22;18679;45.190;5.722;2023-07-20T20:09:11;30.40;32.00
32173;DHT22;18679;45.190;5.722;2023-07-20T20:12:55;30.40;32.10
32173;DHT22;18679;45.190;5.722;2023-07-20T20:21:06;30.30;32.90
32173;DHT22;18679;45.190;5.722;2023-07-20T20:37:03;30.00;34.10
32173;DHT22;18679;45.190;5.722;2023-07-20T20:40:08;29.80;34.30
32173;DHT22;18679;45.190;5.722;2023-07-20T20:43:11;29.70;34.70
32173;DHT22;18679;45.190;5.722;2023-07-20T20:46:15;29.60;35.10
32173;DHT22;18679;45.190;5.722;2023-07-20T20:52:52;29.50;35.30
32173;DHT22;18679;45.190;5.722;2023-07-20T20:55:56;29.40;35.80
32173;DHT22;18679;45.190;5.722;2023-07-20T20:59:34;29.30;35.80
32173;DHT22;18679;45.190;5.722;2023-07-20T21:07:55;29.10;36.40
32173;DHT22;18679;45.190;5.722;2023-07-20T21:11:01;28.80;36.30
32173;DHT22;18679;45.190;5.722;2023-07-20T21:14:11;29.00;36.40
32173;DHT22;18679;45.190;5.722;2023-07-20T21:17:23;28.90;36.50
32173;DHT22;18679;45.190;5.722;2023-07-20T21:20:27;28.90;36.70
32173;DHT22;18679;45.190;5.722;2023-07-20T21:23:33;28.80;36.70
32173;DHT22;18679;45.190;5.722;2023-07-20T21:26:37;28.80;36.60
32173;DHT22;18679;45.190;5.722;2023-07-20T21:29:38;28.80;36.30
32173;DHT22;18679;45.190;5.722;2023-07-20T21:32:42;28.70;36.00
32173;DHT22;18679;45.190;5.722;2023-07-20T21:35:49;28.80;36.00
32173;DHT22;18679;45.190;5.722;2023-07-20T21:38:52;28.80;36.00
32173;DHT22;18679;45.190;5.722;2023-07-20T21:42:01;28.80;35.90
32173;DHT22;18679;45.190;5.722;2023-07-20T21:45:09;28.80;35.80
32173;DHT22;18679;45.190;5.722;2023-07-20T21:48:44;28.70;35.50
32173;DHT22;18679;45.190;5.722;2023-07-20T21:52:15;28.90;35.80
32173;DHT22;18679;45.190;5.722;2023-07-20T21:55:19;29.10;35.80
32173;DHT22;18679;45.190;5.722;2023-07-20T21:58:28;28.70;35.60
32173;DHT22;18679;45.190;5.722;2023-07-20T22:01:33;28.80;35.70
32173;DHT22;18679;45.190;5.722;2023-07-20T22:04:34;28.80;35.80
32173;DHT22;18679;45.190;5.722;2023-07-20T22:07:37;28.70;36.10
32173;DHT22;18679;45.190;5.722;2023-07-20T22:10:45;28.70;36.30
32173;DHT22;18679;45.190;5.722;2023-07-20T22:13:55;28.70;36.40
32173;DHT22;18679;45.190;5.722;2023-07-20T22:16:56;28.70;36.60
32173;DHT22;18679;45.190;5.722;2023-07-20T22:20:05;28.60;37.00
32173;DHT22;18679;45.190;5.722;2023-07-20T22:23:08;28.50;37.50
32173;DHT22;18679;45.190;5.722;2023-07-20T22:26:31;28.30;37.60
32173;DHT22;18679;45.190;5.722;2023-07-20T22:29:35;28.20;37.90
32173;DHT22;18679;45.190;5.722;2023-07-20T22:32:36;28.10;38.10
32173;DHT22;18679;45.190;5.722;2023-07-20T22:35:37;28.10;38.30
32173;DHT22;18679;45.190;5.722;2023-07-20T22:38:39;28.00;38.50
32173;DHT22;18679;45.190;5.722;2023-07-20T22:41:40;28.30;39.00
32173;DHT22;18679;45.190;5.722;2023-07-20T22:48:48;28.00;39.50
32173;DHT22;18679;45.190;5.722;2023-07-20T22:51:57;26.80;38.90
32173;DHT22;18679;45.190;5.722;2023-07-20T22:55:11;27.60;39.50
32173;DHT22;18679;45.190;5.722;2023-07-20T22:58:12;27.60;39.60
32173;DHT22;18679;45.190;5.722;2023-07-20T23:01:13;27.50;39.60
32173;DHT22;18679;45.190;5.722;2023-07-20T23:04:17;27.40;39.80
32173;DHT22;18679;45.190;5.722;2023-07-20T23:07:22;27.50;39.90
32173;DHT22;18679;45.190;5.722;2023-07-20T23:10:38;27.40;39.80
32173;DHT22;18679;45.190;5.722;2023-07-20T23:13:46;27.40;39.80
32173;DHT22;18679;45.190;5.722;2023-07-20T23:16:53;27.40;39.70
32173;DHT22;18679;45.190;5.722;2023-07-20T23:20:19;27.30;39.60
32173;DHT22;18679;45.190;5.722;2023-07-20T23:23:48;27.30;39.40
32173;DHT22;18679;45.190;5.722;2023-07-20T23:27:03;27.40;39.50
32173;DHT22;18679;45.190;5.722;2023-07-20T23:30:07;27.40;39.30
32173;DHT22;18679;45.190;5.722;2023-07-20T23:33:22;27.30;39.20
32173;DHT22;18679;45.190;5.722;2023-07-20T23:36:23;27.40;39.30
32173;DHT22;18679;45.190;5.722;2023-07-20T23:39:30;27.50;39.50
32173;DHT22;18679;45.190;5.722;2023-07-20T23:42:57;27.50;39.80
32173;DHT22;18679;45.190;5.722;2023-07-20T23:46:27;27.10;39.80
